KRTN/RTN METAR and TAF weather

Enter ICAO airport designator
Station Type Date Time Source
KRTN METAR 2021/05/14 13:53 UTC NOAA

KRTN 141353Z AUTO 10003KT 10SM CLR 10/07 A3019 RMK AO2 SLP160 T01000067


Station Type Date Time Source
KRTN Decoded METAR 2021/05/14 13:53 UTC NOAA

Raton, Raton Municipal \ Crews Field Airport, NM, United States (KRTN) 36-44-31N 104-39-28W 1939M
May 14, 2021 - 09:53 AM EDT / 2021.05.14 1353 UTC
Wind: from the E (100 degrees) at 3 MPH (3 KT):0
Visibility: 10 mile(s):0
Sky conditions: clear
Temperature: 50.0 F (10.0 C)
Dew Point: 44.1 F (6.7 C)
Relative Humidity: 79%
Pressure (altimeter): 30.19 in. Hg (1022 hPa)
ob: KRTN 141353Z AUTO 10003KT 10SM CLR 10/07 A3019 RMK AO2 SLP160 T01000067
cycle: 14

Station Type Date Time Source
KRTN TAF UTC NOAA

Error!

Example: see airport list